sensor_id;sensor_type;location;lat;lon;timestamp;P1;durP1;ratioP1;P2;durP2;ratioP2
31482;SDS011;18103;52.246;8.052;2022-08-19T00:01:51;7.07;;;4.40;;
31482;SDS011;18103;52.246;8.052;2022-08-19T00:04:22;6.90;;;4.60;;
31482;SDS011;18103;52.246;8.052;2022-08-19T00:06:50;8.90;;;4.73;;
31482;SDS011;18103;52.246;8.052;2022-08-19T00:09:16;7.87;;;4.63;;
31482;SDS011;18103;52.246;8.052;2022-08-19T00:11:44;6.87;;;4.60;;
31482;SDS011;18103;52.246;8.052;2022-08-19T00:14:14;11.73;;;4.40;;
31482;SDS011;18103;52.246;8.052;2022-08-19T00:16:41;9.13;;;4.37;;
31482;SDS011;18103;52.246;8.052;2022-08-19T00:19:08;9.63;;;4.20;;
31482;SDS011;18103;52.246;8.052;2022-08-19T00:21:33;12.27;;;4.80;;
31482;SDS011;18103;52.246;8.052;2022-08-19T00:24:03;12.97;;;4.67;;
31482;SDS011;18103;52.246;8.052;2022-08-19T00:26:30;9.07;;;5.13;;
31482;SDS011;18103;52.246;8.052;2022-08-19T00:28:55;10.87;;;4.63;;
31482;SDS011;18103;52.246;8.052;2022-08-19T00:31:21;11.30;;;4.93;;
31482;SDS011;18103;52.246;8.052;2022-08-19T00:33:46;6.23;;;4.67;;
31482;SDS011;18103;52.246;8.052;2022-08-19T00:36:12;10.30;;;4.87;;
31482;SDS011;18103;52.246;8.052;2022-08-19T00:38:38;10.83;;;5.17;;
31482;SDS011;18103;52.246;8.052;2022-08-19T00:41:08;11.03;;;4.93;;
31482;SDS011;18103;52.246;8.052;2022-08-19T00:43:35;10.23;;;4.80;;
31482;SDS011;18103;52.246;8.052;2022-08-19T00:46:03;9.20;;;4.83;;
31482;SDS011;18103;52.246;8.052;2022-08-19T00:48:29;9.63;;;4.63;;
31482;SDS011;18103;52.246;8.052;2022-08-19T00:50:57;8.13;;;4.67;;
31482;SDS011;18103;52.246;8.052;2022-08-19T00:53:24;12.83;;;5.23;;
31482;SDS011;18103;52.246;8.052;2022-08-19T00:55:53;8.93;;;5.07;;
31482;SDS011;18103;52.246;8.052;2022-08-19T00:58:22;6.83;;;5.00;;
31482;SDS011;18103;52.246;8.052;2022-08-19T01:00:52;12.13;;;5.77;;
31482;SDS011;18103;52.246;8.052;2022-08-19T01:03:18;12.00;;;4.93;;
31482;SDS011;18103;52.246;8.052;2022-08-19T01:05:45;9.80;;;5.37;;
31482;SDS011;18103;52.246;8.052;2022-08-19T01:08:14;8.90;;;5.20;;
31482;SDS011;18103;52.246;8.052;2022-08-19T01:10:54;6.97;;;4.77;;
31482;SDS011;18103;52.246;8.052;2022-08-19T01:13:23;12.07;;;5.77;;
31482;SDS011;18103;52.246;8.052;2022-08-19T01:15:59;8.97;;;5.87;;
31482;SDS011;18103;52.246;8.052;2022-08-19T01:18:28;14.67;;;5.73;;
31482;SDS011;18103;52.246;8.052;2022-08-19T01:20:54;11.77;;;5.77;;
31482;SDS011;18103;52.246;8.052;2022-08-19T01:23:25;10.63;;;5.63;;
31482;SDS011;18103;52.246;8.052;2022-08-19T01:26:07;10.10;;;4.63;;
31482;SDS011;18103;52.246;8.052;2022-08-19T01:28:36;9.23;;;5.23;;
31482;SDS011;18103;52.246;8.052;2022-08-19T01:31:03;10.23;;;5.23;;
31482;SDS011;18103;52.246;8.052;2022-08-19T01:33:29;6.90;;;4.80;;
31482;SDS011;18103;52.246;8.052;2022-08-19T01:36:03;10.17;;;6.00;;
31482;SDS011;18103;52.246;8.052;2022-08-19T01:38:30;11.20;;;5.70;;
31482;SDS011;18103;52.246;8.052;2022-08-19T01:40:56;6.53;;;4.80;;
31482;SDS011;18103;52.246;8.052;2022-08-19T01:43:22;9.30;;;5.57;;
31482;SDS011;18103;52.246;8.052;2022-08-19T01:45:50;11.03;;;5.30;;
31482;SDS011;18103;52.246;8.052;2022-08-19T01:48:19;10.03;;;5.23;;
31482;SDS011;18103;52.246;8.052;2022-08-19T01:50:44;10.80;;;5.43;;
31482;SDS011;18103;52.246;8.052;2022-08-19T01:53:10;12.30;;;7.07;;
31482;SDS011;18103;52.246;8.052;2022-08-19T01:55:38;8.70;;;5.60;;
31482;SDS011;18103;52.246;8.052;2022-08-19T01:58:05;8.63;;;5.57;;
31482;SDS011;18103;52.246;8.052;2022-08-19T02:00:33;13.17;;;6.03;;
31482;SDS011;18103;52.246;8.052;2022-08-19T02:02:59;9.43;;;5.80;;
31482;SDS011;18103;52.246;8.052;2022-08-19T02:05:26;11.80;;;5.87;;
31482;SDS011;18103;52.246;8.052;2022-08-19T02:07:54;10.10;;;5.30;;
31482;SDS011;18103;52.246;8.052;2022-08-19T02:10:21;7.60;;;5.37;;
31482;SDS011;18103;52.246;8.052;2022-08-19T02:12:47;10.77;;;6.20;;
31482;SDS011;18103;52.246;8.052;2022-08-19T02:15:14;7.70;;;5.37;;
31482;SDS011;18103;52.246;8.052;2022-08-19T02:17:40;12.83;;;6.73;;
31482;SDS011;18103;52.246;8.052;2022-08-19T02:20:06;13.67;;;7.53;;
31482;SDS011;18103;52.246;8.052;2022-08-19T02:22:34;9.83;;;6.40;;
31482;SDS011;18103;52.246;8.052;2022-08-19T02:25:00;13.00;;;6.73;;
31482;SDS011;18103;52.246;8.052;2022-08-19T02:27:25;15.00;;;7.23;;
31482;SDS011;18103;52.246;8.052;2022-08-19T02:29:51;12.20;;;6.80;;
31482;SDS011;18103;52.246;8.052;2022-08-19T02:32:17;14.87;;;6.77;;
31482;SDS011;18103;52.246;8.052;2022-08-19T02:34:47;9.83;;;6.47;;
31482;SDS011;18103;52.246;8.052;2022-08-19T02:37:13;12.40;;;6.57;;
31482;SDS011;18103;52.246;8.052;2022-08-19T02:39:57;12.87;;;7.20;;
31482;SDS011;18103;52.246;8.052;2022-08-19T02:42:23;11.37;;;7.67;;
31482;SDS011;18103;52.246;8.052;2022-08-19T02:44:48;9.40;;;6.60;;
31482;SDS011;18103;52.246;8.052;2022-08-19T02:47:14;15.63;;;8.60;;
31482;SDS011;18103;52.246;8.052;2022-08-19T02:49:40;11.47;;;7.53;;
31482;SDS011;18103;52.246;8.052;2022-08-19T02:52:05;10.10;;;6.90;;
31482;SDS011;18103;52.246;8.052;2022-08-19T02:54:34;13.60;;;6.30;;
31482;SDS011;18103;52.246;8.052;2022-08-19T02:56:59;12.57;;;7.60;;
31482;SDS011;18103;52.246;8.052;2022-08-19T02:59:25;12.63;;;7.17;;
31482;SDS011;18103;52.246;8.052;2022-08-19T03:01:51;16.67;;;7.37;;
31482;SDS011;18103;52.246;8.052;2022-08-19T03:04:17;10.97;;;7.13;;
31482;SDS011;18103;52.246;8.052;2022-08-19T03:06:43;14.93;;;7.10;;
31482;SDS011;18103;52.246;8.052;2022-08-19T03:09:11;14.03;;;7.50;;
31482;SDS011;18103;52.246;8.052;2022-08-19T03:11:37;12.57;;;7.27;;
31482;SDS011;18103;52.246;8.052;2022-08-19T03:14:06;15.90;;;7.50;;
31482;SDS011;18103;52.246;8.052;2022-08-19T03:16:34;14.07;;;7.23;;
31482;SDS011;18103;52.246;8.052;2022-08-19T03:19:07;13.23;;;8.00;;
31482;SDS011;18103;52.246;8.052;2022-08-19T03:21:34;10.17;;;7.20;;
31482;SDS011;18103;52.246;8.052;2022-08-19T03:24:00;10.17;;;6.90;;
31482;SDS011;18103;52.246;8.052;2022-08-19T03:26:28;12.40;;;7.83;;
31482;SDS011;18103;52.246;8.052;2022-08-19T03:28:54;10.80;;;6.93;;
31482;SDS011;18103;52.246;8.052;2022-08-19T03:31:21;12.20;;;7.33;;
31482;SDS011;18103;52.246;8.052;2022-08-19T03:33:48;12.13;;;7.57;;
31482;SDS011;18103;52.246;8.052;2022-08-19T03:36:22;10.97;;;7.00;;
31482;SDS011;18103;52.246;8.052;2022-08-19T03:38:51;13.70;;;8.33;;
31482;SDS011;18103;52.246;8.052;2022-08-19T03:41:20;11.00;;;8.27;;
31482;SDS011;18103;52.246;8.052;2022-08-19T03:43:47;13.90;;;8.40;;
31482;SDS011;18103;52.246;8.052;2022-08-19T03:46:14;11.23;;;7.63;;
31482;SDS011;18103;52.246;8.052;2022-08-19T03:48:42;13.50;;;8.13;;
31482;SDS011;18103;52.246;8.052;2022-08-19T03:51:19;16.73;;;8.23;;
31482;SDS011;18103;52.246;8.052;2022-08-19T03:54:06;14.50;;;8.77;;
31482;SDS011;18103;52.246;8.052;2022-08-19T03:56:34;14.67;;;8.80;;
31482;SDS011;18103;52.246;8.052;2022-08-19T03:59:03;22.90;;;10.33;;
31482;SDS011;18103;52.246;8.052;2022-08-19T04:01:30;16.27;;;9.37;;
31482;SDS011;18103;52.246;8.052;2022-08-19T04:03:56;19.20;;;9.10;;
31482;SDS011;18103;52.246;8.052;2022-08-19T04:06:23;16.40;;;9.00;;
31482;SDS011;18103;52.246;8.052;2022-08-19T04:08:52;18.17;;;9.63;;
31482;SDS011;18103;52.246;8.052;2022-08-19T04:11:21;13.77;;;9.13;;
31482;SDS011;18103;52.246;8.052;2022-08-19T04:13:52;14.07;;;8.87;;
31482;SDS011;18103;52.246;8.052;2022-08-19T04:16:18;16.77;;;9.00;;
31482;SDS011;18103;52.246;8.052;2022-08-19T04:18:45;16.73;;;8.70;;
31482;SDS011;18103;52.246;8.052;2022-08-19T04:21:19;14.27;;;8.67;;
31482;SDS011;18103;52.246;8.052;2022-08-19T04:23:46;13.10;;;7.90;;
31482;SDS011;18103;52.246;8.052;2022-08-19T04:26:16;14.17;;;9.00;;
31482;SDS011;18103;52.246;8.052;2022-08-19T04:28:43;12.03;;;8.00;;
31482;SDS011;18103;52.246;8.052;2022-08-19T04:31:15;14.17;;;8.13;;
31482;SDS011;18103;52.246;8.052;2022-08-19T04:33:42;12.53;;;7.70;;
31482;SDS011;18103;52.246;8.052;2022-08-19T04:36:08;14.37;;;8.50;;
31482;SDS011;18103;52.246;8.052;2022-08-19T04:38:42;15.63;;;7.80;;
31482;SDS011;18103;52.246;8.052;2022-08-19T04:41:08;18.97;;;8.60;;
31482;SDS011;18103;52.246;8.052;2022-08-19T04:43:51;13.83;;;8.97;;
31482;SDS011;18103;52.246;8.052;2022-08-19T04:46:17;15.67;;;8.27;;
31482;SDS011;18103;52.246;8.052;2022-08-19T04:48:43;16.53;;;9.57;;
31482;SDS011;18103;52.246;8.052;2022-08-19T04:51:12;14.90;;;8.80;;
31482;SDS011;18103;52.246;8.052;2022-08-19T04:53:38;14.00;;;8.73;;
31482;SDS011;18103;52.246;8.052;2022-08-19T04:56:14;10.13;;;7.97;;
31482;SDS011;18103;52.246;8.052;2022-08-19T04:58:41;15.77;;;8.70;;
31482;SDS011;18103;52.246;8.052;2022-08-19T05:01:08;16.10;;;9.67;;
31482;SDS011;18103;52.246;8.052;2022-08-19T05:03:35;12.33;;;8.27;;
31482;SDS011;18103;52.246;8.052;2022-08-19T05:06:08;15.87;;;8.07;;
31482;SDS011;18103;52.246;8.052;2022-08-19T05:08:37;11.80;;;8.07;;
31482;SDS011;18103;52.246;8.052;2022-08-19T05:11:10;14.33;;;9.23;;
31482;SDS011;18103;52.246;8.052;2022-08-19T05:13:45;18.80;;;9.47;;
31482;SDS011;18103;52.246;8.052;2022-08-19T05:16:14;16.77;;;8.90;;
31482;SDS011;18103;52.246;8.052;2022-08-19T05:18:41;15.77;;;8.60;;
31482;SDS011;18103;52.246;8.052;2022-08-19T05:21:25;15.33;;;8.60;;
31482;SDS011;18103;52.246;8.052;2022-08-19T05:24:11;15.83;;;8.60;;
31482;SDS011;18103;52.246;8.052;2022-08-19T05:26:43;14.93;;;8.37;;
31482;SDS011;18103;52.246;8.052;2022-08-19T05:29:11;13.90;;;8.93;;
31482;SDS011;18103;52.246;8.052;2022-08-19T05:31:39;16.13;;;8.93;;
31482;SDS011;18103;52.246;8.052;2022-08-19T05:34:04;13.07;;;9.07;;
31482;SDS011;18103;52.246;8.052;2022-08-19T05:36:33;15.47;;;8.90;;
31482;SDS011;18103;52.246;8.052;2022-08-19T05:39:02;23.27;;;10.50;;
31482;SDS011;18103;52.246;8.052;2022-08-19T05:41:28;18.37;;;9.23;;
31482;SDS011;18103;52.246;8.052;2022-08-19T05:44:00;14.50;;;8.40;;
31482;SDS011;18103;52.246;8.052;2022-08-19T05:46:30;18.30;;;10.00;;
31482;SDS011;18103;52.246;8.052;2022-08-19T05:48:56;19.87;;;10.60;;
31482;SDS011;18103;52.246;8.052;2022-08-19T05:51:24;14.17;;;8.87;;
31482;SDS011;18103;52.246;8.052;2022-08-19T05:54:01;15.80;;;8.87;;
31482;SDS011;18103;52.246;8.052;2022-08-19T05:56:27;14.97;;;9.37;;
31482;SDS011;18103;52.246;8.052;2022-08-19T05:58:55;13.77;;;8.90;;
31482;SDS011;18103;52.246;8.052;2022-08-19T06:01:20;17.37;;;9.93;;
31482;SDS011;18103;52.246;8.052;2022-08-19T06:03:46;17.43;;;9.37;;
31482;SDS011;18103;52.246;8.052;2022-08-19T06:06:13;16.23;;;9.27;;
31482;SDS011;18103;52.246;8.052;2022-08-19T06:08:39;17.73;;;9.90;;
31482;SDS011;18103;52.246;8.052;2022-08-19T06:11:14;18.20;;;9.03;;
31482;SDS011;18103;52.246;8.052;2022-08-19T06:13:46;18.50;;;9.20;;
31482;SDS011;18103;52.246;8.052;2022-08-19T06:16:14;13.47;;;8.90;;
31482;SDS011;18103;52.246;8.052;2022-08-19T06:18:49;18.60;;;8.47;;
31482;SDS011;18103;52.246;8.052;2022-08-19T06:21:21;14.30;;;8.00;;
31482;SDS011;18103;52.246;8.052;2022-08-19T06:23:49;15.67;;;9.17;;
31482;SDS011;18103;52.246;8.052;2022-08-19T06:26:16;14.30;;;8.30;;
31482;SDS011;18103;52.246;8.052;2022-08-19T06:28:43;13.43;;;8.20;;
31482;SDS011;18103;52.246;8.052;2022-08-19T06:31:29;12.97;;;7.80;;
31482;SDS011;18103;52.246;8.052;2022-08-19T06:33:58;15.93;;;7.60;;
31482;SDS011;18103;52.246;8.052;2022-08-19T06:36:25;18.50;;;7.13;;
31482;SDS011;18103;52.246;8.052;2022-08-19T06:38:56;17.33;;;7.50;;
31482;SDS011;18103;52.246;8.052;2022-08-19T06:41:23;13.87;;;6.47;;
31482;SDS011;18103;52.246;8.052;2022-08-19T06:43:57;13.10;;;7.33;;
31482;SDS011;18103;52.246;8.052;2022-08-19T06:46:22;12.10;;;6.13;;
31482;SDS011;18103;52.246;8.052;2022-08-19T06:48:48;10.50;;;6.57;;
31482;SDS011;18103;52.246;8.052;2022-08-19T06:51:15;13.73;;;6.37;;
31482;SDS011;18103;52.246;8.052;2022-08-19T06:53:44;11.07;;;5.03;;
31482;SDS011;18103;52.246;8.052;2022-08-19T06:56:12;7.60;;;5.30;;
31482;SDS011;18103;52.246;8.052;2022-08-19T06:58:39;13.13;;;4.90;;
31482;SDS011;18103;52.246;8.052;2022-08-19T07:01:05;12.93;;;5.37;;
31482;SDS011;18103;52.246;8.052;2022-08-19T07:03:32;11.53;;;4.57;;
31482;SDS011;18103;52.246;8.052;2022-08-19T07:06:03;11.67;;;5.20;;
31482;SDS011;18103;52.246;8.052;2022-08-19T07:08:30;8.80;;;4.93;;
31482;SDS011;18103;52.246;8.052;2022-08-19T07:10:55;8.27;;;4.43;;
31482;SDS011;18103;52.246;8.052;2022-08-19T07:13:21;8.57;;;5.23;;
31482;SDS011;18103;52.246;8.052;2022-08-19T07:15:47;8.30;;;4.80;;
31482;SDS011;18103;52.246;8.052;2022-08-19T07:18:15;8.73;;;4.63;;
31482;SDS011;18103;52.246;8.052;2022-08-19T07:20:42;10.17;;;5.83;;
31482;SDS011;18103;52.246;8.052;2022-08-19T07:23:08;10.40;;;5.23;;
31482;SDS011;18103;52.246;8.052;2022-08-19T07:25:35;9.00;;;5.30;;
31482;SDS011;18103;52.246;8.052;2022-08-19T07:28:01;6.73;;;5.57;;
31482;SDS011;18103;52.246;8.052;2022-08-19T07:30:27;9.67;;;5.87;;
31482;SDS011;18103;52.246;8.052;2022-08-19T07:32:52;13.00;;;5.90;;
31482;SDS011;18103;52.246;8.052;2022-08-19T07:35:18;7.80;;;4.20;;
31482;SDS011;18103;52.246;8.052;2022-08-19T07:37:44;10.53;;;5.43;;
31482;SDS011;18103;52.246;8.052;2022-08-19T07:40:13;8.83;;;4.40;;
31482;SDS011;18103;52.246;8.052;2022-08-19T07:42:38;7.50;;;4.10;;
31482;SDS011;18103;52.246;8.052;2022-08-19T07:45:05;8.77;;;4.70;;
31482;SDS011;18103;52.246;8.052;2022-08-19T07:47:31;9.23;;;5.03;;
31482;SDS011;18103;52.246;8.052;2022-08-19T07:49:56;8.00;;;4.27;;
31482;SDS011;18103;52.246;8.052;2022-08-19T07:52:22;7.10;;;4.23;;
31482;SDS011;18103;52.246;8.052;2022-08-19T07:54:48;6.37;;;4.10;;
31482;SDS011;18103;52.246;8.052;2022-08-19T07:57:15;9.53;;;3.17;;
31482;SDS011;18103;52.246;8.052;2022-08-19T07:59:44;5.43;;;3.70;;
31482;SDS011;18103;52.246;8.052;2022-08-19T08:02:09;8.27;;;4.07;;
31482;SDS011;18103;52.246;8.052;2022-08-19T08:04:35;5.90;;;3.93;;
31482;SDS011;18103;52.246;8.052;2022-08-19T08:07:19;8.13;;;3.80;;
31482;SDS011;18103;52.246;8.052;2022-08-19T08:10:05;7.40;;;3.80;;
31482;SDS011;18103;52.246;8.052;2022-08-19T08:12:33;6.07;;;3.07;;
31482;SDS011;18103;52.246;8.052;2022-08-19T08:15:07;7.90;;;3.30;;
31482;SDS011;18103;52.246;8.052;2022-08-19T08:17:41;5.90;;;3.73;;
31482;SDS011;18103;52.246;8.052;2022-08-19T08:20:07;6.23;;;3.80;;
31482;SDS011;18103;52.246;8.052;2022-08-19T08:22:33;6.47;;;3.70;;
31482;SDS011;18103;52.246;8.052;2022-08-19T08:25:17;5.07;;;3.33;;
31482;SDS011;18103;52.246;8.052;2022-08-19T08:27:46;7.57;;;3.57;;
31482;SDS011;18103;52.246;8.052;2022-08-19T08:30:14;11.93;;;3.60;;
31482;SDS011;18103;52.246;8.052;2022-08-19T08:32:41;4.87;;;3.53;;
31482;SDS011;18103;52.246;8.052;2022-08-19T08:35:07;5.43;;;3.17;;
31482;SDS011;18103;52.246;8.052;2022-08-19T08:37:35;5.93;;;3.57;;
31482;SDS011;18103;52.246;8.052;2022-08-19T08:40:05;6.67;;;3.27;;
31482;SDS011;18103;52.246;8.052;2022-08-19T08:42:40;8.47;;;3.47;;
31482;SDS011;18103;52.246;8.052;2022-08-19T08:45:16;6.10;;;3.20;;
31482;SDS011;18103;52.246;8.052;2022-08-19T08:47:44;5.30;;;3.40;;
31482;SDS011;18103;52.246;8.052;2022-08-19T08:50:16;5.13;;;3.50;;
31482;SDS011;18103;52.246;8.052;2022-08-19T08:52:45;3.97;;;2.60;;
31482;SDS011;18103;52.246;8.052;2022-08-19T08:55:18;3.70;;;2.07;;
31482;SDS011;18103;52.246;8.052;2022-08-19T08:57:53;2.47;;;1.93;;
31482;SDS011;18103;52.246;8.052;2022-08-19T09:02:58;7.53;;;2.70;;
31482;SDS011;18103;52.246;8.052;2022-08-19T09:05:30;5.30;;;2.77;;
31482;SDS011;18103;52.246;8.052;2022-08-19T09:10:43;9.60;;;2.73;;
31482;SDS011;18103;52.246;8.052;2022-08-19T09:13:24;7.00;;;2.37;;
31482;SDS011;18103;52.246;8.052;2022-08-19T09:15:58;4.63;;;2.47;;
31482;SDS011;18103;52.246;8.052;2022-08-19T09:21:26;3.37;;;2.63;;
31482;SDS011;18103;52.246;8.052;2022-08-19T09:23:52;5.20;;;2.60;;
31482;SDS011;18103;52.246;8.052;2022-08-19T09:26:22;9.43;;;2.53;;
31482;SDS011;18103;52.246;8.052;2022-08-19T09:28:49;4.07;;;2.60;;
31482;SDS011;18103;52.246;8.052;2022-08-19T09:31:21;2.73;;;2.10;;
31482;SDS011;18103;52.246;8.052;2022-08-19T09:33:48;7.30;;;2.80;;
31482;SDS011;18103;52.246;8.052;2022-08-19T09:36:16;4.80;;;3.00;;
31482;SDS011;18103;52.246;8.052;2022-08-19T09:38:47;4.00;;;2.60;;
31482;SDS011;18103;52.246;8.052;2022-08-19T09:41:14;7.30;;;2.33;;
31482;SDS011;18103;52.246;8.052;2022-08-19T09:43:44;6.97;;;2.50;;
31482;SDS011;18103;52.246;8.052;2022-08-19T09:46:11;5.47;;;2.07;;
31482;SDS011;18103;52.246;8.052;2022-08-19T09:48:38;6.77;;;2.80;;
31482;SDS011;18103;52.246;8.052;2022-08-19T09:51:05;6.03;;;2.57;;
31482;SDS011;18103;52.246;8.052;2022-08-19T09:53:33;4.27;;;2.50;;
31482;SDS011;18103;52.246;8.052;2022-08-19T09:55:59;3.27;;;2.00;;
31482;SDS011;18103;52.246;8.052;2022-08-19T09:58:24;2.70;;;1.90;;
31482;SDS011;18103;52.246;8.052;2022-08-19T10:00:53;5.47;;;2.90;;
31482;SDS011;18103;52.246;8.052;2022-08-19T10:03:22;3.03;;;2.43;;
31482;SDS011;18103;52.246;8.052;2022-08-19T10:05:48;5.23;;;2.23;;
31482;SDS011;18103;52.246;8.052;2022-08-19T10:08:14;5.60;;;2.70;;
31482;SDS011;18103;52.246;8.052;2022-08-19T10:10:41;4.70;;;2.20;;
31482;SDS011;18103;52.246;8.052;2022-08-19T10:13:10;3.37;;;2.50;;
31482;SDS011;18103;52.246;8.052;2022-08-19T10:15:36;8.47;;;2.80;;
31482;SDS011;18103;52.246;8.052;2022-08-19T10:18:04;3.37;;;2.03;;
31482;SDS011;18103;52.246;8.052;2022-08-19T10:20:30;2.73;;;2.20;;
31482;SDS011;18103;52.246;8.052;2022-08-19T10:22:56;4.87;;;2.63;;
31482;SDS011;18103;52.246;8.052;2022-08-19T10:25:24;8.57;;;2.50;;
31482;SDS011;18103;52.246;8.052;2022-08-19T10:27:51;5.07;;;2.90;;
31482;SDS011;18103;52.246;8.052;2022-08-19T10:30:16;6.53;;;3.30;;
31482;SDS011;18103;52.246;8.052;2022-08-19T10:32:42;3.33;;;2.00;;
31482;SDS011;18103;52.246;8.052;2022-08-19T10:35:08;3.40;;;2.63;;
31482;SDS011;18103;52.246;8.052;2022-08-19T10:37:35;5.90;;;2.70;;
31482;SDS011;18103;52.246;8.052;2022-08-19T10:40:02;5.47;;;2.00;;
31482;SDS011;18103;52.246;8.052;2022-08-19T10:42:30;5.23;;;2.03;;
31482;SDS011;18103;52.246;8.052;2022-08-19T10:44:56;2.10;;;1.80;;
31482;SDS011;18103;52.246;8.052;2022-08-19T10:47:22;2.60;;;1.47;;
31482;SDS011;18103;52.246;8.052;2022-08-19T10:49:51;3.00;;;1.80;;
31482;SDS011;18103;52.246;8.052;2022-08-19T10:52:39;6.73;;;2.03;;
31482;SDS011;18103;52.246;8.052;2022-08-19T10:55:08;6.33;;;2.20;;
31482;SDS011;18103;52.246;8.052;2022-08-19T10:57:52;3.57;;;1.70;;
31482;SDS011;18103;52.246;8.052;2022-08-19T11:00:18;3.00;;;2.00;;
31482;SDS011;18103;52.246;8.052;2022-08-19T11:02:45;4.00;;;2.20;;
31482;SDS011;18103;52.246;8.052;2022-08-19T11:05:14;4.27;;;2.40;;
31482;SDS011;18103;52.246;8.052;2022-08-19T11:07:39;1.90;;;1.67;;
31482;SDS011;18103;52.246;8.052;2022-08-19T11:10:06;3.70;;;2.23;;
31482;SDS011;18103;52.246;8.052;2022-08-19T11:12:33;3.67;;;2.30;;
31482;SDS011;18103;52.246;8.052;2022-08-19T11:14:58;5.33;;;2.67;;
31482;SDS011;18103;52.246;8.052;2022-08-19T11:17:26;3.30;;;2.07;;
31482;SDS011;18103;52.246;8.052;2022-08-19T11:19:52;2.83;;;1.83;;
31482;SDS011;18103;52.246;8.052;2022-08-19T11:22:17;3.60;;;1.60;;
31482;SDS011;18103;52.246;8.052;2022-08-19T11:24:43;3.60;;;1.83;;
31482;SDS011;18103;52.246;8.052;2022-08-19T11:27:08;3.50;;;1.67;;
31482;SDS011;18103;52.246;8.052;2022-08-19T11:29:35;2.67;;;1.50;;
31482;SDS011;18103;52.246;8.052;2022-08-19T11:32:07;1.93;;;1.50;;
31482;SDS011;18103;52.246;8.052;2022-08-19T11:34:34;1.60;;;1.40;;
31482;SDS011;18103;52.246;8.052;2022-08-19T11:37:01;3.23;;;1.90;;
31482;SDS011;18103;52.246;8.052;2022-08-19T11:39:29;3.80;;;1.87;;
31482;SDS011;18103;52.246;8.052;2022-08-19T11:41:59;2.30;;;1.90;;
31482;SDS011;18103;52.246;8.052;2022-08-19T11:44:26;4.50;;;1.90;;
31482;SDS011;18103;52.246;8.052;2022-08-19T11:46:55;4.13;;;1.90;;
31482;SDS011;18103;52.246;8.052;2022-08-19T11:49:21;7.63;;;2.10;;
31482;SDS011;18103;52.246;8.052;2022-08-19T11:51:50;3.27;;;1.80;;
31482;SDS011;18103;52.246;8.052;2022-08-19T11:54:16;3.30;;;2.07;;
31482;SDS011;18103;52.246;8.052;2022-08-19T11:56:42;3.53;;;2.00;;
31482;SDS011;18103;52.246;8.052;2022-08-19T11:59:09;2.23;;;1.83;;
31482;SDS011;18103;52.246;8.052;2022-08-19T12:01:35;2.77;;;2.13;;
31482;SDS011;18103;52.246;8.052;2022-08-19T12:04:01;4.43;;;2.20;;
31482;SDS011;18103;52.246;8.052;2022-08-19T12:06:27;2.37;;;1.77;;
31482;SDS011;18103;52.246;8.052;2022-08-19T12:08:55;3.57;;;1.80;;
31482;SDS011;18103;52.246;8.052;2022-08-19T12:11:22;5.07;;;2.10;;
31482;SDS011;18103;52.246;8.052;2022-08-19T12:13:48;2.40;;;1.70;;
31482;SDS011;18103;52.246;8.052;2022-08-19T12:16:16;4.90;;;1.80;;
31482;SDS011;18103;52.246;8.052;2022-08-19T12:18:43;4.17;;;1.93;;
31482;SDS011;18103;52.246;8.052;2022-08-19T12:21:11;2.93;;;2.10;;
31482;SDS011;18103;52.246;8.052;2022-08-19T12:23:38;6.07;;;1.70;;
31482;SDS011;18103;52.246;8.052;2022-08-19T12:26:04;2.70;;;2.03;;
31482;SDS011;18103;52.246;8.052;2022-08-19T12:28:30;3.67;;;1.90;;
31482;SDS011;18103;52.246;8.052;2022-08-19T12:30:58;2.67;;;2.00;;
31482;SDS011;18103;52.246;8.052;2022-08-19T12:33:23;2.07;;;1.90;;
31482;SDS011;18103;52.246;8.052;2022-08-19T12:35:52;1.67;;;1.57;;
31482;SDS011;18103;52.246;8.052;2022-08-19T12:38:17;9.20;;;2.00;;
31482;SDS011;18103;52.246;8.052;2022-08-19T12:40:47;4.13;;;1.60;;
31482;SDS011;18103;52.246;8.052;2022-08-19T12:43:13;2.30;;;1.83;;
31482;SDS011;18103;52.246;8.052;2022-08-19T12:45:40;6.40;;;2.07;;
31482;SDS011;18103;52.246;8.052;2022-08-19T12:48:07;3.07;;;1.40;;
31482;SDS011;18103;52.246;8.052;2022-08-19T12:50:32;4.73;;;2.00;;
31482;SDS011;18103;52.246;8.052;2022-08-19T12:52:57;3.17;;;1.90;;
31482;SDS011;18103;52.246;8.052;2022-08-19T12:55:23;4.07;;;2.03;;
31482;SDS011;18103;52.246;8.052;2022-08-19T12:57:49;3.30;;;2.00;;
31482;SDS011;18103;52.246;8.052;2022-08-19T13:00:16;1.87;;;1.57;;
31482;SDS011;18103;52.246;8.052;2022-08-19T13:02:46;2.40;;;2.00;;
31482;SDS011;18103;52.246;8.052;2022-08-19T13:05:16;3.13;;;2.10;;
31482;SDS011;18103;52.246;8.052;2022-08-19T13:07:46;5.77;;;1.93;;
31482;SDS011;18103;52.246;8.052;2022-08-19T13:10:12;4.17;;;1.63;;
31482;SDS011;18103;52.246;8.052;2022-08-19T13:12:40;2.73;;;2.00;;
31482;SDS011;18103;52.246;8.052;2022-08-19T13:15:07;3.90;;;2.20;;
31482;SDS011;18103;52.246;8.052;2022-08-19T13:17:35;2.47;;;1.90;;
31482;SDS011;18103;52.246;8.052;2022-08-19T13:20:02;2.43;;;2.23;;
31482;SDS011;18103;52.246;8.052;2022-08-19T13:22:28;3.40;;;2.30;;
31482;SDS011;18103;52.246;8.052;2022-08-19T13:24:54;4.80;;;2.10;;
31482;SDS011;18103;52.246;8.052;2022-08-19T13:27:19;1.80;;;1.70;;
31482;SDS011;18103;52.246;8.052;2022-08-19T13:29:44;3.03;;;2.17;;
31482;SDS011;18103;52.246;8.052;2022-08-19T13:32:29;3.53;;;2.00;;
31482;SDS011;18103;52.246;8.052;2022-08-19T13:35:14;6.83;;;2.10;;
31482;SDS011;18103;52.246;8.052;2022-08-19T13:37:40;3.20;;;2.00;;
31482;SDS011;18103;52.246;8.052;2022-08-19T13:40:06;2.17;;;1.97;;
31482;SDS011;18103;52.246;8.052;2022-08-19T13:42:37;3.53;;;2.23;;
31482;SDS011;18103;52.246;8.052;2022-08-19T13:45:03;2.70;;;1.90;;
31482;SDS011;18103;52.246;8.052;2022-08-19T13:47:31;11.47;;;2.37;;
31482;SDS011;18103;52.246;8.052;2022-08-19T13:49:56;1.93;;;1.80;;
31482;SDS011;18103;52.246;8.052;2022-08-19T13:52:22;3.93;;;2.03;;
31482;SDS011;18103;52.246;8.052;2022-08-19T13:54:47;2.63;;;2.10;;
31482;SDS011;18103;52.246;8.052;2022-08-19T13:57:13;2.00;;;1.80;;
31482;SDS011;18103;52.246;8.052;2022-08-19T13:59:39;3.40;;;2.17;;
31482;SDS011;18103;52.246;8.052;2022-08-19T14:02:10;5.40;;;2.40;;
31482;SDS011;18103;52.246;8.052;2022-08-19T14:04:36;3.93;;;2.00;;
31482;SDS011;18103;52.246;8.052;2022-08-19T14:07:02;3.57;;;2.10;;
31482;SDS011;18103;52.246;8.052;2022-08-19T14:09:31;2.70;;;2.00;;
31482;SDS011;18103;52.246;8.052;2022-08-19T14:11:56;2.27;;;1.90;;
31482;SDS011;18103;52.246;8.052;2022-08-19T14:14:22;3.40;;;1.93;;
31482;SDS011;18103;52.246;8.052;2022-08-19T14:16:48;2.13;;;1.80;;
31482;SDS011;18103;52.246;8.052;2022-08-19T14:19:14;1.97;;;1.77;;
31482;SDS011;18103;52.246;8.052;2022-08-19T14:21:39;2.07;;;1.70;;
31482;SDS011;18103;52.246;8.052;2022-08-19T14:24:09;4.53;;;2.00;;
31482;SDS011;18103;52.246;8.052;2022-08-19T14:26:34;3.80;;;1.73;;
31482;SDS011;18103;52.246;8.052;2022-08-19T14:28:59;5.40;;;2.13;;
31482;SDS011;18103;52.246;8.052;2022-08-19T14:31:26;5.83;;;1.90;;
31482;SDS011;18103;52.246;8.052;2022-08-19T14:33:51;3.67;;;2.43;;
31482;SDS011;18103;52.246;8.052;2022-08-19T14:36:17;2.47;;;1.80;;
31482;SDS011;18103;52.246;8.052;2022-08-19T14:38:45;1.90;;;1.73;;
31482;SDS011;18103;52.246;8.052;2022-08-19T14:41:14;6.30;;;2.07;;
31482;SDS011;18103;52.246;8.052;2022-08-19T14:43:45;2.60;;;1.80;;
31482;SDS011;18103;52.246;8.052;2022-08-19T14:46:16;2.13;;;1.87;;
31482;SDS011;18103;52.246;8.052;2022-08-19T14:48:45;3.07;;;2.20;;
31482;SDS011;18103;52.246;8.052;2022-08-19T14:51:11;2.23;;;2.07;;
31482;SDS011;18103;52.246;8.052;2022-08-19T14:53:37;2.70;;;1.90;;
31482;SDS011;18103;52.246;8.052;2022-08-19T14:56:09;4.57;;;2.00;;
31482;SDS011;18103;52.246;8.052;2022-08-19T14:58:37;2.83;;;1.83;;